EUS29JP LFBD-LEMD
Flight info
| Callsign | EUS29JP |
|---|---|
| Flight time | 1h 16m |
| Altitude | 33000 |
| Route | VAVIX DCT NETUK N857 VASUM DCT BANEV |
| Aircraft | A320/M-SDE3FGHIRWY/LB1 |
Departure
| Time | 2026-05-04 14:43 |
|---|---|
| Airport | Bordeaux–Mérignac Airport (LFBD) |
Arrival
| Time | 2026-05-04 15:59 |
|---|---|
| Airport | Adolfo Suárez Madrid–Barajas Airport (LEMD) |
| Time | Latitude | Longitude | Altitude | Speed | Heading |
|---|---|---|---|---|---|
| 2026-05-04 14:26 | 44.83230 | -0.70328 | 163 ft | 0 kts | 116° |
| 2026-05-04 14:36 | 44.83235 | -0.70344 | 163 ft | 4 kts | 114° |
| 2026-05-04 14:37 | 44.83245 | -0.70379 | 163 ft | 4 kts | 100° |
| 2026-05-04 14:37 | 44.83245 | -0.70415 | 163 ft | 4 kts | 64° |
| 2026-05-04 14:37 | 44.83237 | -0.70432 | 163 ft | 1 kts | 45° |
| 2026-05-04 14:37 | 44.83236 | -0.70433 | 163 ft | 0 kts | 45° |
| 2026-05-04 14:40 | 44.83242 | -0.70424 | 163 ft | 5 kts | 45° |
| 2026-05-04 14:40 | 44.83288 | -0.70360 | 163 ft | 13 kts | 45° |
| 2026-05-04 14:40 | 44.83364 | -0.70328 | 163 ft | 13 kts | 347° |
| 2026-05-04 14:40 | 44.83438 | -0.70267 | 163 ft | 13 kts | 46° |
| 2026-05-04 14:41 | 44.83499 | -0.70179 | 163 ft | 12 kts | 46° |
| 2026-05-04 14:41 | 44.83556 | -0.70100 | 163 ft | 11 kts | 45° |
| 2026-05-04 14:41 | 44.83663 | -0.70004 | 163 ft | 8 kts | 343° |
| 2026-05-04 14:42 | 44.83799 | -0.70127 | 161 ft | 19 kts | 291° |
| 2026-05-04 14:42 | 44.83673 | -0.70378 | 160 ft | 64 kts | 225° |
| 2026-05-04 14:42 | 44.83187 | -0.71072 | 165 ft | 132 kts | 225° |
| 2026-05-04 14:43 | 44.82454 | -0.72165 | 419 ft | 163 kts | 228° |
| 2026-05-04 14:43 | 44.81667 | -0.73312 | 1249 ft | 162 kts | 230° |
| 2026-05-04 14:43 | 44.80857 | -0.74525 | 1880 ft | 178 kts | 230° |
| 2026-05-04 14:43 | 44.79953 | -0.75888 | 2382 ft | 202 kts | 230° |
| 2026-05-04 14:44 | 44.78949 | -0.77396 | 2880 ft | 226 kts | 229° |
| 2026-05-04 14:44 | 44.77785 | -0.79113 | 3469 ft | 251 kts | 225° |
| 2026-05-04 14:44 | 44.76281 | -0.80432 | 4289 ft | 266 kts | 202° |
| 2026-05-04 14:44 | 44.74436 | -0.80859 | 5298 ft | 275 kts | 178° |
| 2026-05-04 14:45 | 44.72565 | -0.80216 | 6343 ft | 281 kts | 154° |
| 2026-05-04 14:45 | 44.70978 | -0.78614 | 7385 ft | 283 kts | 140° |
| 2026-05-04 14:45 | 44.69484 | -0.76797 | 8413 ft | 286 kts | 140° |
| 2026-05-04 14:45 | 44.67990 | -0.74902 | 9407 ft | 290 kts | 137° |
| 2026-05-04 14:46 | 44.66545 | -0.72909 | 10380 ft | 293 kts | 139° |
| 2026-05-04 14:46 | 44.64912 | -0.71203 | 11224 ft | 299 kts | 152° |
| 2026-05-04 14:46 | 44.62917 | -0.70100 | 11698 ft | 314 kts | 169° |
| 2026-05-04 14:46 | 44.60733 | -0.69841 | 12501 ft | 318 kts | 181° |
| 2026-05-04 14:47 | 44.58503 | -0.69834 | 13385 ft | 320 kts | 180° |
| 2026-05-04 14:47 | 44.56270 | -0.69812 | 14234 ft | 323 kts | 180° |
| 2026-05-04 14:47 | 44.54015 | -0.69785 | 15030 ft | 326 kts | 180° |
| 2026-05-04 14:47 | 44.51729 | -0.69755 | 15805 ft | 329 kts | 180° |
| 2026-05-04 14:48 | 44.49436 | -0.69723 | 16572 ft | 332 kts | 180° |
| 2026-05-04 14:48 | 44.47112 | -0.69691 | 17333 ft | 334 kts | 180° |
| 2026-05-04 14:48 | 44.44811 | -0.69655 | 18049 ft | 337 kts | 180° |
| 2026-05-04 14:48 | 44.42436 | -0.69618 | 18755 ft | 340 kts | 180° |
| 2026-05-04 14:49 | 44.40056 | -0.69582 | 19446 ft | 342 kts | 180° |
| 2026-05-04 14:49 | 44.37669 | -0.69546 | 20107 ft | 345 kts | 180° |
| 2026-05-04 14:49 | 44.35263 | -0.69511 | 20762 ft | 348 kts | 180° |
| 2026-05-04 14:49 | 44.32824 | -0.69476 | 21391 ft | 351 kts | 180° |
| 2026-05-04 14:50 | 44.30383 | -0.69528 | 21981 ft | 353 kts | 185° |
| 2026-05-04 14:50 | 44.27987 | -0.70157 | 22551 ft | 356 kts | 195° |
| 2026-05-04 14:50 | 44.25655 | -0.71461 | 23114 ft | 361 kts | 206° |
| 2026-05-04 14:50 | 44.23510 | -0.73331 | 23661 ft | 365 kts | 211° |
| 2026-05-04 14:51 | 44.21395 | -0.75291 | 24189 ft | 367 kts | 211° |
| 2026-05-04 14:51 | 44.19279 | -0.77243 | 24699 ft | 370 kts | 211° |
| 2026-05-04 14:51 | 44.17133 | -0.79217 | 25236 ft | 371 kts | 211° |
| 2026-05-04 14:51 | 44.14969 | -0.81205 | 25755 ft | 373 kts | 211° |
| 2026-05-04 14:52 | 44.12796 | -0.83195 | 26265 ft | 374 kts | 211° |
| 2026-05-04 14:52 | 44.10625 | -0.85183 | 26749 ft | 376 kts | 211° |
| 2026-05-04 14:52 | 44.08428 | -0.87194 | 27240 ft | 377 kts | 211° |
| 2026-05-04 14:52 | 44.06234 | -0.89199 | 27694 ft | 379 kts | 211° |
| 2026-05-04 14:53 | 44.04019 | -0.91221 | 28145 ft | 380 kts | 211° |
| 2026-05-04 14:53 | 44.01809 | -0.93237 | 28603 ft | 382 kts | 211° |
| 2026-05-04 14:53 | 43.99591 | -0.95260 | 29037 ft | 383 kts | 212° |
| 2026-05-04 14:53 | 43.97352 | -0.97301 | 29468 ft | 384 kts | 212° |
| 2026-05-04 14:54 | 43.95126 | -0.99333 | 29946 ft | 384 kts | 212° |
| 2026-05-04 14:54 | 43.92885 | -1.01377 | 30377 ft | 385 kts | 212° |
| 2026-05-04 14:54 | 43.90651 | -1.03411 | 30749 ft | 386 kts | 212° |
| 2026-05-04 14:54 | 43.88388 | -1.05469 | 31088 ft | 389 kts | 212° |
| 2026-05-04 14:55 | 43.86129 | -1.07519 | 31398 ft | 391 kts | 212° |
| 2026-05-04 14:55 | 43.83862 | -1.09571 | 31709 ft | 393 kts | 212° |
| 2026-05-04 14:55 | 43.81551 | -1.11661 | 32136 ft | 393 kts | 213° |
| 2026-05-04 14:55 | 43.79258 | -1.13736 | 32555 ft | 392 kts | 213° |
| 2026-05-04 14:56 | 43.77005 | -1.15774 | 32912 ft | 393 kts | 213° |
| 2026-05-04 14:56 | 43.74703 | -1.17854 | 32983 ft | 388 kts | 213° |
| 2026-05-04 14:56 | 43.72486 | -1.19858 | 33000 ft | 371 kts | 213° |
| 2026-05-04 14:56 | 43.70384 | -1.21758 | 33000 ft | 363 kts | 213° |
| 2026-05-04 14:57 | 43.66158 | -1.25565 | 33008 ft | 359 kts | 213° |
| 2026-05-04 14:57 | 43.62001 | -1.29299 | 33006 ft | 358 kts | 212° |
| 2026-05-04 14:58 | 43.57823 | -1.33045 | 33015 ft | 358 kts | 212° |
| 2026-05-04 14:58 | 43.54346 | -1.36161 | 33017 ft | 359 kts | 213° |
| 2026-05-04 14:59 | 43.49454 | -1.40539 | 33020 ft | 358 kts | 213° |
| 2026-05-04 15:00 | 43.43195 | -1.46126 | 33019 ft | 357 kts | 213° |
| 2026-05-04 15:00 | 43.39027 | -1.49843 | 33018 ft | 357 kts | 213° |
| 2026-05-04 15:01 | 43.32809 | -1.55376 | 33018 ft | 356 kts | 212° |
| 2026-05-04 15:01 | 43.28620 | -1.59081 | 33019 ft | 356 kts | 212° |
| 2026-05-04 15:02 | 43.24101 | -1.61775 | 33018 ft | 358 kts | 194° |
| 2026-05-04 15:02 | 43.19191 | -1.62657 | 33015 ft | 359 kts | 190° |
| 2026-05-04 15:03 | 43.14226 | -1.63477 | 33017 ft | 359 kts | 190° |
| 2026-05-04 15:03 | 43.09269 | -1.64306 | 33016 ft | 358 kts | 190° |
| 2026-05-04 15:04 | 43.04325 | -1.65124 | 33011 ft | 357 kts | 190° |
| 2026-05-04 15:04 | 42.99401 | -1.65935 | 33007 ft | 357 kts | 190° |
| 2026-05-04 15:05 | 42.95276 | -1.66620 | 32979 ft | 359 kts | 189° |
| 2026-05-04 15:05 | 42.90289 | -1.67439 | 32969 ft | 362 kts | 189° |
| 2026-05-04 15:06 | 42.85289 | -1.68258 | 32968 ft | 364 kts | 189° |
| 2026-05-04 15:07 | 42.77722 | -1.69487 | 32971 ft | 366 kts | 190° |
| 2026-05-04 15:07 | 42.72741 | -1.70766 | 32973 ft | 363 kts | 202° |
| 2026-05-04 15:08 | 42.68189 | -1.73703 | 32979 ft | 362 kts | 207° |
| 2026-05-04 15:08 | 42.63667 | -1.76745 | 32971 ft | 363 kts | 207° |
| 2026-05-04 15:09 | 42.59143 | -1.79777 | 32971 ft | 363 kts | 207° |
| 2026-05-04 15:09 | 42.54616 | -1.82812 | 32971 ft | 362 kts | 207° |
| 2026-05-04 15:10 | 42.47862 | -1.87338 | 32970 ft | 363 kts | 207° |
| 2026-05-04 15:11 | 42.41074 | -1.91859 | 32964 ft | 362 kts | 207° |
| 2026-05-04 15:11 | 42.36553 | -1.94872 | 32963 ft | 363 kts | 208° |
| 2026-05-04 15:12 | 42.32033 | -1.97884 | 32962 ft | 362 kts | 207° |
| 2026-05-04 15:12 | 42.27513 | -2.00896 | 32962 ft | 362 kts | 207° |
| 2026-05-04 15:13 | 42.22992 | -2.03903 | 32959 ft | 362 kts | 207° |
| 2026-05-04 15:13 | 42.18467 | -2.06907 | 32958 ft | 362 kts | 207° |
| 2026-05-04 15:14 | 42.13938 | -2.09894 | 32960 ft | 362 kts | 207° |
| 2026-05-04 15:14 | 42.09414 | -2.12868 | 32957 ft | 363 kts | 207° |
| 2026-05-04 15:15 | 42.04911 | -2.15836 | 32956 ft | 362 kts | 207° |
| 2026-05-04 15:15 | 42.00391 | -2.18803 | 32952 ft | 361 kts | 207° |
| 2026-05-04 15:16 | 41.95543 | -2.21987 | 32949 ft | 362 kts | 207° |
| 2026-05-04 15:17 | 41.94243 | -2.22855 | 32945 ft | 362 kts | 208° |
| 2026-05-04 15:17 | 41.90655 | -2.25217 | 32946 ft | 362 kts | 207° |
| 2026-05-04 15:19 | 41.89434 | -2.26005 | 32941 ft | 362 kts | 207° |
| 2026-05-04 15:19 | 41.84253 | -2.29374 | 32942 ft | 361 kts | 207° |
| 2026-05-04 15:20 | 41.79760 | -2.32315 | 32941 ft | 362 kts | 208° |
| 2026-05-04 15:20 | 41.77143 | -2.34023 | 32943 ft | 362 kts | 208° |
| 2026-05-04 15:21 | 41.73125 | -2.36633 | 32948 ft | 363 kts | 207° |
| 2026-05-04 15:22 | 41.66312 | -2.41049 | 32959 ft | 362 kts | 208° |
| 2026-05-04 15:22 | 41.59517 | -2.45469 | 32958 ft | 362 kts | 208° |
| 2026-05-04 15:23 | 41.54978 | -2.48405 | 32639 ft | 361 kts | 208° |
| 2026-05-04 15:23 | 41.52732 | -2.49855 | 32197 ft | 356 kts | 208° |
| 2026-05-04 15:23 | 41.50537 | -2.51272 | 31748 ft | 353 kts | 208° |
| 2026-05-04 15:24 | 41.46154 | -2.54107 | 30771 ft | 347 kts | 208° |
| 2026-05-04 15:24 | 41.41823 | -2.56896 | 29855 ft | 340 kts | 208° |
| 2026-05-04 15:25 | 41.39728 | -2.58244 | 29427 ft | 336 kts | 208° |
| 2026-05-04 15:25 | 41.37631 | -2.59591 | 28996 ft | 333 kts | 208° |
| 2026-05-04 15:25 | 41.35556 | -2.60923 | 28571 ft | 329 kts | 208° |
| 2026-05-04 15:26 | 41.31209 | -2.62681 | 27730 ft | 330 kts | 189° |
| 2026-05-04 15:26 | 41.28912 | -2.62668 | 27309 ft | 332 kts | 181° |
| 2026-05-04 15:26 | 41.24343 | -2.62245 | 26415 ft | 327 kts | 181° |
| 2026-05-04 15:27 | 41.22078 | -2.62044 | 25986 ft | 325 kts | 181° |
| 2026-05-04 15:27 | 41.17576 | -2.61651 | 25066 ft | 323 kts | 181° |
| 2026-05-04 15:28 | 41.13104 | -2.61264 | 24115 ft | 321 kts | 181° |
| 2026-05-04 15:28 | 41.10876 | -2.61068 | 23637 ft | 320 kts | 181° |
| 2026-05-04 15:28 | 41.06437 | -2.60670 | 22690 ft | 319 kts | 181° |
| 2026-05-04 15:29 | 41.04225 | -2.60469 | 22222 ft | 318 kts | 181° |
| 2026-05-04 15:30 | 40.95422 | -2.59689 | 20429 ft | 317 kts | 181° |
| 2026-05-04 15:30 | 40.88860 | -2.59104 | 19115 ft | 314 kts | 181° |
| 2026-05-04 15:31 | 40.84559 | -2.59078 | 18260 ft | 304 kts | 195° |
| 2026-05-04 15:31 | 40.82598 | -2.59934 | 17855 ft | 298 kts | 209° |
| 2026-05-04 15:32 | 40.78009 | -2.65198 | 16647 ft | 291 kts | 226° |
| 2026-05-04 15:32 | 40.75169 | -2.68988 | 15846 ft | 289 kts | 226° |
| 2026-05-04 15:33 | 40.72341 | -2.72758 | 15056 ft | 289 kts | 226° |
| 2026-05-04 15:34 | 40.68126 | -2.78355 | 14112 ft | 279 kts | 226° |
| 2026-05-04 15:34 | 40.66778 | -2.80148 | 14005 ft | 276 kts | 226° |
| 2026-05-04 15:34 | 40.63697 | -2.83274 | 13675 ft | 282 kts | 213° |
| 2026-05-04 15:35 | 40.60354 | -2.85956 | 13161 ft | 281 kts | 213° |
| 2026-05-04 15:35 | 40.58684 | -2.87291 | 12955 ft | 280 kts | 213° |
| 2026-05-04 15:35 | 40.57024 | -2.88622 | 12715 ft | 280 kts | 213° |
| 2026-05-04 15:36 | 40.53722 | -2.91270 | 12228 ft | 279 kts | 213° |
| 2026-05-04 15:36 | 40.52046 | -2.92620 | 11979 ft | 279 kts | 213° |
| 2026-05-04 15:36 | 40.50395 | -2.93946 | 11727 ft | 278 kts | 213° |
| 2026-05-04 15:37 | 40.48758 | -2.95262 | 11483 ft | 279 kts | 213° |
| 2026-05-04 15:37 | 40.47104 | -2.96588 | 11234 ft | 278 kts | 213° |
| 2026-05-04 15:37 | 40.45457 | -2.97911 | 10976 ft | 276 kts | 213° |
| 2026-05-04 15:37 | 40.43814 | -2.99230 | 10729 ft | 277 kts | 213° |
| 2026-05-04 15:38 | 40.42170 | -3.00546 | 10489 ft | 277 kts | 213° |
| 2026-05-04 15:38 | 40.40529 | -3.01863 | 10238 ft | 276 kts | 214° |
| 2026-05-04 15:38 | 40.38891 | -3.03179 | 9981 ft | 276 kts | 213° |
| 2026-05-04 15:38 | 40.37250 | -3.04491 | 9729 ft | 276 kts | 213° |
| 2026-05-04 15:39 | 40.35613 | -3.05797 | 9477 ft | 276 kts | 213° |
| 2026-05-04 15:39 | 40.33975 | -3.07106 | 9221 ft | 276 kts | 214° |
| 2026-05-04 15:39 | 40.30700 | -3.09715 | 8720 ft | 275 kts | 213° |
| 2026-05-04 15:40 | 40.29073 | -3.11013 | 8473 ft | 273 kts | 214° |
| 2026-05-04 15:40 | 40.27526 | -3.12435 | 8228 ft | 270 kts | 228° |
| 2026-05-04 15:40 | 40.26613 | -3.14526 | 7984 ft | 266 kts | 256° |
| 2026-05-04 15:40 | 40.26603 | -3.16927 | 7734 ft | 267 kts | 280° |
| 2026-05-04 15:41 | 40.27170 | -3.19242 | 7480 ft | 270 kts | 298° |
| 2026-05-04 15:41 | 40.28462 | -3.21009 | 7241 ft | 273 kts | 326° |
| 2026-05-04 15:41 | 40.30257 | -3.21896 | 7123 ft | 280 kts | 342° |
| 2026-05-04 15:41 | 40.32154 | -3.22495 | 6995 ft | 280 kts | 343° |
| 2026-05-04 15:42 | 40.34045 | -3.23056 | 6874 ft | 279 kts | 344° |
| 2026-05-04 15:42 | 40.35945 | -3.23618 | 6748 ft | 279 kts | 344° |
| 2026-05-04 15:42 | 40.37836 | -3.24183 | 6633 ft | 279 kts | 344° |
| 2026-05-04 15:42 | 40.39724 | -3.24751 | 6507 ft | 278 kts | 344° |
| 2026-05-04 15:43 | 40.41612 | -3.25319 | 6384 ft | 278 kts | 343° |
| 2026-05-04 15:43 | 40.43468 | -3.25877 | 6265 ft | 277 kts | 344° |
| 2026-05-04 15:43 | 40.45369 | -3.26447 | 6147 ft | 276 kts | 344° |
| 2026-05-04 15:43 | 40.47220 | -3.27000 | 6024 ft | 276 kts | 343° |
| 2026-05-04 15:44 | 40.49091 | -3.27559 | 5900 ft | 275 kts | 344° |
| 2026-05-04 15:44 | 40.50959 | -3.28120 | 5773 ft | 275 kts | 344° |
| 2026-05-04 15:44 | 40.52827 | -3.28679 | 5646 ft | 275 kts | 343° |
| 2026-05-04 15:44 | 40.54683 | -3.29266 | 5521 ft | 273 kts | 341° |
| 2026-05-04 15:45 | 40.56501 | -3.30010 | 5385 ft | 274 kts | 339° |
| 2026-05-04 15:45 | 40.58319 | -3.30788 | 5275 ft | 275 kts | 339° |
| 2026-05-04 15:45 | 40.60138 | -3.31576 | 5157 ft | 275 kts | 339° |
| 2026-05-04 15:45 | 40.61951 | -3.32370 | 5032 ft | 274 kts | 339° |
| 2026-05-04 15:46 | 40.63754 | -3.33165 | 4914 ft | 273 kts | 339° |
| 2026-05-04 15:46 | 40.65552 | -3.33958 | 4785 ft | 271 kts | 339° |
| 2026-05-04 15:46 | 40.67329 | -3.34745 | 4658 ft | 269 kts | 339° |
| 2026-05-04 15:46 | 40.69099 | -3.35531 | 4530 ft | 268 kts | 339° |
| 2026-05-04 15:47 | 40.70862 | -3.36316 | 4410 ft | 267 kts | 339° |
| 2026-05-04 15:47 | 40.72618 | -3.37104 | 4280 ft | 267 kts | 339° |
| 2026-05-04 15:47 | 40.74378 | -3.37899 | 4158 ft | 267 kts | 339° |
| 2026-05-04 15:47 | 40.76132 | -3.38698 | 4031 ft | 266 kts | 339° |
| 2026-05-04 15:48 | 40.77880 | -3.39495 | 3903 ft | 264 kts | 339° |
| 2026-05-04 15:48 | 40.79597 | -3.40356 | 3783 ft | 264 kts | 334° |
| 2026-05-04 15:48 | 40.83094 | -3.41589 | 3982 ft | 267 kts | 4° |
| 2026-05-04 15:49 | 40.84907 | -3.40942 | 4553 ft | 273 kts | 17° |
| 2026-05-04 15:49 | 40.86704 | -3.40101 | 5092 ft | 276 kts | 18° |
| 2026-05-04 15:49 | 40.88517 | -3.39233 | 5641 ft | 278 kts | 17° |
| 2026-05-04 15:49 | 40.90374 | -3.38730 | 5964 ft | 271 kts | 356° |
| 2026-05-04 15:50 | 40.92117 | -3.39167 | 6025 ft | 244 kts | 334° |
| 2026-05-04 15:50 | 40.93489 | -3.40315 | 6033 ft | 226 kts | 314° |
| 2026-05-04 15:50 | 40.94417 | -3.41883 | 6034 ft | 211 kts | 296° |
| 2026-05-04 15:50 | 40.94904 | -3.43696 | 6034 ft | 209 kts | 278° |
| 2026-05-04 15:51 | 40.94941 | -3.45675 | 6036 ft | 223 kts | 261° |
| 2026-05-04 15:51 | 40.94466 | -3.47654 | 6040 ft | 229 kts | 243° |
| 2026-05-04 15:51 | 40.93498 | -3.49331 | 6035 ft | 231 kts | 224° |
| 2026-05-04 15:51 | 40.92187 | -3.50577 | 6037 ft | 233 kts | 216° |
| 2026-05-04 15:52 | 40.90837 | -3.51767 | 6030 ft | 233 kts | 216° |
| 2026-05-04 15:52 | 40.89492 | -3.52960 | 6041 ft | 233 kts | 216° |
| 2026-05-04 15:52 | 40.88149 | -3.54157 | 6047 ft | 233 kts | 216° |
| 2026-05-04 15:52 | 40.86800 | -3.55358 | 6036 ft | 234 kts | 217° |
| 2026-05-04 15:53 | 40.85459 | -3.56561 | 6033 ft | 233 kts | 216° |
| 2026-05-04 15:53 | 40.84010 | -3.57509 | 6033 ft | 236 kts | 197° |
| 2026-05-04 15:53 | 40.82922 | -3.57672 | 6032 ft | 239 kts | 184° |
| 2026-05-04 15:53 | 40.81260 | -3.57660 | 6031 ft | 239 kts | 182° |
| 2026-05-04 15:54 | 40.79589 | -3.57640 | 6032 ft | 240 kts | 183° |
| 2026-05-04 15:54 | 40.77921 | -3.57629 | 6035 ft | 239 kts | 183° |
| 2026-05-04 15:54 | 40.76254 | -3.57619 | 6047 ft | 240 kts | 183° |
| 2026-05-04 15:54 | 40.74586 | -3.57608 | 6040 ft | 240 kts | 183° |
| 2026-05-04 15:55 | 40.72917 | -3.57598 | 5939 ft | 240 kts | 183° |
| 2026-05-04 15:55 | 40.71249 | -3.57589 | 5665 ft | 239 kts | 183° |
| 2026-05-04 15:55 | 40.69596 | -3.57579 | 5366 ft | 237 kts | 182° |
| 2026-05-04 15:55 | 40.67945 | -3.57569 | 5047 ft | 237 kts | 182° |
| 2026-05-04 15:56 | 40.66298 | -3.57560 | 4734 ft | 237 kts | 182° |
| 2026-05-04 15:56 | 40.64651 | -3.57551 | 4418 ft | 236 kts | 182° |
| 2026-05-04 15:56 | 40.63038 | -3.57541 | 4104 ft | 227 kts | 182° |
| 2026-05-04 15:56 | 40.61483 | -3.57532 | 3818 ft | 223 kts | 182° |
| 2026-05-04 15:57 | 40.59983 | -3.57522 | 3543 ft | 205 kts | 183° |
| 2026-05-04 15:57 | 40.58635 | -3.57513 | 3269 ft | 184 kts | 183° |
| 2026-05-04 15:57 | 40.57411 | -3.57506 | 3047 ft | 166 kts | 182° |
| 2026-05-04 15:57 | 40.56313 | -3.57499 | 2819 ft | 150 kts | 184° |
| 2026-05-04 15:58 | 40.55313 | -3.57494 | 2632 ft | 137 kts | 183° |
| 2026-05-04 15:58 | 40.54376 | -3.57489 | 2460 ft | 133 kts | 182° |
| 2026-05-04 15:58 | 40.53462 | -3.57485 | 2280 ft | 130 kts | 185° |
| 2026-05-04 15:58 | 40.52555 | -3.57480 | 2103 ft | 130 kts | 182° |
| 2026-05-04 15:59 | 40.51664 | -3.57476 | 1972 ft | 125 kts | 180° |
| 2026-05-04 15:59 | 40.50926 | -3.57472 | 1951 ft | 83 kts | 180° |
| 2026-05-04 15:59 | 40.50520 | -3.57470 | 1944 ft | 42 kts | 179° |
| 2026-05-04 15:59 | 40.50219 | -3.57467 | 1938 ft | 43 kts | 180° |
| 2026-05-04 16:00 | 40.49993 | -3.57419 | 1935 ft | 30 kts | 158° |
| 2026-05-04 16:00 | 40.49824 | -3.57300 | 1934 ft | 27 kts | 152° |
| 2026-05-04 16:00 | 40.49736 | -3.57120 | 1937 ft | 27 kts | 90° |
| 2026-05-04 16:00 | 40.49720 | -3.56980 | 1940 ft | 8 kts | 89° |
| 2026-05-04 16:01 | 40.49723 | -3.56924 | 1942 ft | 5 kts | 88° |
| 2026-05-04 16:01 | 40.49723 | -3.56896 | 1942 ft | 2 kts | 89° |
| 2026-05-04 16:01 | 40.49723 | -3.56885 | 1943 ft | 2 kts | 90° |
| 2026-05-04 16:01 | 40.49723 | -3.56878 | 1943 ft | 0 kts | 89° |
| 2026-05-04 16:02 | 40.49723 | -3.56879 | 1943 ft | 0 kts | 89° |